Yeager Airport
KCRW : now visible

Airfield :











YOU CAN JOIN US ON...

 
LOGIN :

Register | Disclaimer

   EN    FR    IT 

 









Legend :    VFR   Marginal VFR   IFR   Intensive IFR   Very Intensive IFR
Visi :
Ceiling :
>= 8 km
>= 3000ft
5 to 8 km
1000 to 3000 ft
1500m to 5 km
500 to 1000 ft
800 to 1500m
200 to 500 ft
< 800m
< 200 ft
Symbols :   Thunderstorms  Fog  Heavy snow  Heavy precipitations  Wind > 20 kt






- Airport Elevation : 981 ft
- IATA code : CRW


KCRW - Yeager

CURRENT METAR :
  • 290354Z 00000KT 10SM FEW110 22/19 A3003 RMK AO2 SLP160 T02220194

EXPIRED METARs :
  • 290254Z 00000KT 10SM FEW100 23/19 A3004 RMK AO2 SLP163 T02280194 53007
  • 290154Z 00000KT 10SM FEW090 24/19 A3004 RMK AO2 SLP161 T02440194

TAF KCRW
Valid from the 29 at 03:00 until the 30 at 00:00 UTC


290301Z 2903/2924 00000KT P6SM FEW100
FM290600 00000KT 5SM BR FEW002 FEW180
FM290800 00000KT 1SM BR SCT002
FM291000 00000KT 1/2SM FG VV002 FEW250
FM291200 00000KT P6SM FEW250
FM291700 25008G14KT P6SM SCT035
KZID FIR / North America



MET'MAP, your aeronautical weather chart ! - Copyright ORBIFLY December 2007 - Disclaimer

ORBIFLY MET'MAP TEAM :

Programming & Development : Alexandra Zaïnal
Concept & original design : Baudouin d'Aumeries
Assistance for programming : Marc-Olivier Méhu
Technical & hardware support : Manuel Goepfert

Contact : metmap@orbifly.com




SOURCES & CREDITS :

   NOAA       Earth
Advisory